sensor_id;sensor_type;location;lat;lon;timestamp;temperature;humidity
47022;DHT22;32779;52.264;6.154;2022-12-18T00:01:43;-4.00;99.90
47022;DHT22;32779;52.264;6.154;2022-12-18T00:04:20;-4.00;99.90
47022;DHT22;32779;52.264;6.154;2022-12-18T00:06:46;-4.00;99.90
47022;DHT22;32779;52.264;6.154;2022-12-18T00:09:11;-4.00;99.90
47022;DHT22;32779;52.264;6.154;2022-12-18T00:11:41;-4.00;99.90
47022;DHT22;32779;52.264;6.154;2022-12-18T00:14:06;-4.10;99.90
47022;DHT22;32779;52.264;6.154;2022-12-18T00:16:32;-4.10;99.90
47022;DHT22;32779;52.264;6.154;2022-12-18T00:19:01;-4.10;99.90
47022;DHT22;32779;52.264;6.154;2022-12-18T00:21:29;-4.20;99.90
47022;DHT22;32779;52.264;6.154;2022-12-18T00:23:56;-4.10;99.90
47022;DHT22;32779;52.264;6.154;2022-12-18T00:26:25;-4.10;99.90
47022;DHT22;32779;52.264;6.154;2022-12-18T00:28:52;-4.10;99.90
47022;DHT22;32779;52.264;6.154;2022-12-18T00:31:21;-4.20;99.90
47022;DHT22;32779;52.264;6.154;2022-12-18T00:33:47;-4.20;99.90
47022;DHT22;32779;52.264;6.154;2022-12-18T00:36:19;-4.20;99.90
47022;DHT22;32779;52.264;6.154;2022-12-18T00:38:46;-4.20;99.90
47022;DHT22;32779;52.264;6.154;2022-12-18T00:41:14;-4.30;99.90
47022;DHT22;32779;52.264;6.154;2022-12-18T00:44:00;-4.30;99.90
47022;DHT22;32779;52.264;6.154;2022-12-18T00:46:26;-4.40;99.90
47022;DHT22;32779;52.264;6.154;2022-12-18T00:48:55;-4.40;99.90
47022;DHT22;32779;52.264;6.154;2022-12-18T00:51:20;-4.50;99.90
47022;DHT22;32779;52.264;6.154;2022-12-18T00:53:46;-4.50;99.90
47022;DHT22;32779;52.264;6.154;2022-12-18T00:56:12;-4.50;99.90
47022;DHT22;32779;52.264;6.154;2022-12-18T00:58:38;-4.50;99.90
47022;DHT22;32779;52.264;6.154;2022-12-18T01:01:05;-4.50;99.90
47022;DHT22;32779;52.264;6.154;2022-12-18T01:03:31;-4.60;99.90
47022;DHT22;32779;52.264;6.154;2022-12-18T01:05:56;-4.60;99.90
47022;DHT22;32779;52.264;6.154;2022-12-18T01:08:22;-4.60;99.90
47022;DHT22;32779;52.264;6.154;2022-12-18T01:10:51;-4.60;99.90
47022;DHT22;32779;52.264;6.154;2022-12-18T01:13:17;-4.60;99.90
47022;DHT22;32779;52.264;6.154;2022-12-18T01:15:49;-4.60;99.90
47022;DHT22;32779;52.264;6.154;2022-12-18T01:18:15;-4.60;99.90
47022;DHT22;32779;52.264;6.154;2022-12-18T01:20:41;-4.70;99.90
47022;DHT22;32779;52.264;6.154;2022-12-18T01:23:07;-4.70;99.90
47022;DHT22;32779;52.264;6.154;2022-12-18T01:25:32;-4.70;99.90
47022;DHT22;32779;52.264;6.154;2022-12-18T01:27:58;-4.70;99.90
47022;DHT22;32779;52.264;6.154;2022-12-18T01:30:25;-4.80;99.90
47022;DHT22;32779;52.264;6.154;2022-12-18T01:32:50;-4.80;99.90
47022;DHT22;32779;52.264;6.154;2022-12-18T01:35:16;-4.80;99.90
47022;DHT22;32779;52.264;6.154;2022-12-18T01:37:42;-4.80;99.90
47022;DHT22;32779;52.264;6.154;2022-12-18T01:40:11;-4.80;99.90
47022;DHT22;32779;52.264;6.154;2022-12-18T01:42:37;-4.90;99.90
47022;DHT22;32779;52.264;6.154;2022-12-18T01:47:47;-4.90;99.90
47022;DHT22;32779;52.264;6.154;2022-12-18T01:52:43;-4.90;99.90
47022;DHT22;32779;52.264;6.154;2022-12-18T01:55:11;-4.90;99.90
47022;DHT22;32779;52.264;6.154;2022-12-18T01:57:38;-4.90;99.90
47022;DHT22;32779;52.264;6.154;2022-12-18T02:00:13;-4.90;99.90
47022;DHT22;32779;52.264;6.154;2022-12-18T02:02:41;-4.90;99.90
47022;DHT22;32779;52.264;6.154;2022-12-18T02:05:08;-5.00;99.90
47022;DHT22;32779;52.264;6.154;2022-12-18T02:16:19;-5.00;99.90
47022;DHT22;32779;52.264;6.154;2022-12-18T02:18:57;-5.00;99.90
47022;DHT22;32779;52.264;6.154;2022-12-18T02:27:07;-5.10;99.90
47022;DHT22;32779;52.264;6.154;2022-12-18T02:29:46;-5.10;99.90
47022;DHT22;32779;52.264;6.154;2022-12-18T02:32:35;-5.10;99.90
47022;DHT22;32779;52.264;6.154;2022-12-18T02:35:05;-5.10;99.90
47022;DHT22;32779;52.264;6.154;2022-12-18T02:37:32;-5.10;99.90
47022;DHT22;32779;52.264;6.154;2022-12-18T02:39:59;-5.10;99.90
47022;DHT22;32779;52.264;6.154;2022-12-18T02:42:26;-5.10;99.90
47022;DHT22;32779;52.264;6.154;2022-12-18T02:44:53;-5.10;99.90
47022;DHT22;32779;52.264;6.154;2022-12-18T02:47:23;-5.10;99.90
47022;DHT22;32779;52.264;6.154;2022-12-18T02:52:43;-5.10;99.90
47022;DHT22;32779;52.264;6.154;2022-12-18T02:58:26;-5.10;99.90
47022;DHT22;32779;52.264;6.154;2022-12-18T03:04:03;-5.20;99.90
47022;DHT22;32779;52.264;6.154;2022-12-18T03:06:33;-5.20;99.90
47022;DHT22;32779;52.264;6.154;2022-12-18T03:09:08;-5.20;99.90
47022;DHT22;32779;52.264;6.154;2022-12-18T03:11:39;-5.20;99.90
47022;DHT22;32779;52.264;6.154;2022-12-18T03:14:26;-5.30;99.90
47022;DHT22;32779;52.264;6.154;2022-12-18T03:17:00;-5.20;99.90
47022;DHT22;32779;52.264;6.154;2022-12-18T03:19:29;-5.30;99.90
47022;DHT22;32779;52.264;6.154;2022-12-18T03:21:58;-5.30;99.90
47022;DHT22;32779;52.264;6.154;2022-12-18T03:24:28;-5.30;99.90
47022;DHT22;32779;52.264;6.154;2022-12-18T03:26:59;-5.30;99.90
47022;DHT22;32779;52.264;6.154;2022-12-18T03:29:36;-5.30;99.90
47022;DHT22;32779;52.264;6.154;2022-12-18T03:32:10;-5.30;99.90
47022;DHT22;32779;52.264;6.154;2022-12-18T03:34:39;-5.30;99.90
47022;DHT22;32779;52.264;6.154;2022-12-18T03:37:06;-5.30;99.90
47022;DHT22;32779;52.264;6.154;2022-12-18T03:39:34;-5.30;99.90
47022;DHT22;32779;52.264;6.154;2022-12-18T03:44:57;-5.30;99.90
47022;DHT22;32779;52.264;6.154;2022-12-18T03:48:10;-5.30;99.90
47022;DHT22;32779;52.264;6.154;2022-12-18T03:50:56;-5.30;99.90
47022;DHT22;32779;52.264;6.154;2022-12-18T03:56:26;-5.30;99.90
47022;DHT22;32779;52.264;6.154;2022-12-18T03:58:57;-5.30;99.90
47022;DHT22;32779;52.264;6.154;2022-12-18T04:01:30;-5.30;99.90
47022;DHT22;32779;52.264;6.154;2022-12-18T04:03:59;-5.20;99.90
47022;DHT22;32779;52.264;6.154;2022-12-18T04:06:25;-5.30;99.90
47022;DHT22;32779;52.264;6.154;2022-12-18T04:08:51;-5.30;99.90
47022;DHT22;32779;52.264;6.154;2022-12-18T04:11:20;-5.30;99.90
47022;DHT22;32779;52.264;6.154;2022-12-18T04:13:46;-5.30;99.90
47022;DHT22;32779;52.264;6.154;2022-12-18T04:16:12;-5.20;99.90
47022;DHT22;32779;52.264;6.154;2022-12-18T04:18:37;-5.20;99.90
47022;DHT22;32779;52.264;6.154;2022-12-18T04:21:03;-5.20;99.90
47022;DHT22;32779;52.264;6.154;2022-12-18T04:23:29;-5.20;99.90
47022;DHT22;32779;52.264;6.154;2022-12-18T04:25:55;-5.20;99.90
47022;DHT22;32779;52.264;6.154;2022-12-18T04:28:21;-5.20;99.90
47022;DHT22;32779;52.264;6.154;2022-12-18T04:30:47;-5.20;99.90
47022;DHT22;32779;52.264;6.154;2022-12-18T04:33:13;-5.20;99.90
47022;DHT22;32779;52.264;6.154;2022-12-18T04:35:40;-5.20;99.90
47022;DHT22;32779;52.264;6.154;2022-12-18T04:38:06;-5.20;99.90
47022;DHT22;32779;52.264;6.154;2022-12-18T04:40:35;-5.20;99.90
47022;DHT22;32779;52.264;6.154;2022-12-18T04:43:00;-5.20;99.90
47022;DHT22;32779;52.264;6.154;2022-12-18T04:45:26;-5.20;99.90
47022;DHT22;32779;52.264;6.154;2022-12-18T04:47:52;-5.20;99.90
47022;DHT22;32779;52.264;6.154;2022-12-18T04:50:18;-5.20;99.90
47022;DHT22;32779;52.264;6.154;2022-12-18T04:52:44;-5.20;99.90
47022;DHT22;32779;52.264;6.154;2022-12-18T04:55:10;-5.20;99.90
47022;DHT22;32779;52.264;6.154;2022-12-18T04:57:36;-5.10;99.90
47022;DHT22;32779;52.264;6.154;2022-12-18T05:00:02;-5.20;99.90
47022;DHT22;32779;52.264;6.154;2022-12-18T05:02:28;-5.20;99.90
47022;DHT22;32779;52.264;6.154;2022-12-18T05:04:53;-5.10;99.90
47022;DHT22;32779;52.264;6.154;2022-12-18T05:07:19;-5.10;99.90
47022;DHT22;32779;52.264;6.154;2022-12-18T05:09:45;-5.10;99.90
47022;DHT22;32779;52.264;6.154;2022-12-18T05:12:11;-5.10;99.90
47022;DHT22;32779;52.264;6.154;2022-12-18T05:14:37;-5.10;99.90
47022;DHT22;32779;52.264;6.154;2022-12-18T05:17:02;-5.10;99.90
47022;DHT22;32779;52.264;6.154;2022-12-18T05:19:28;-5.00;99.90
47022;DHT22;32779;52.264;6.154;2022-12-18T05:21:54;-5.00;99.90
47022;DHT22;32779;52.264;6.154;2022-12-18T05:24:20;-5.00;99.90
47022;DHT22;32779;52.264;6.154;2022-12-18T05:26:45;-5.00;99.90
47022;DHT22;32779;52.264;6.154;2022-12-18T05:29:14;-5.00;99.90
47022;DHT22;32779;52.264;6.154;2022-12-18T05:31:40;-5.00;99.90
47022;DHT22;32779;52.264;6.154;2022-12-18T05:34:09;-5.10;99.90
47022;DHT22;32779;52.264;6.154;2022-12-18T05:36:34;-5.00;99.90
47022;DHT22;32779;52.264;6.154;2022-12-18T05:39:00;-5.10;99.90
47022;DHT22;32779;52.264;6.154;2022-12-18T05:41:32;-5.10;99.90
47022;DHT22;32779;52.264;6.154;2022-12-18T05:43:59;-5.10;99.90
47022;DHT22;32779;52.264;6.154;2022-12-18T05:46:25;-5.10;99.90
47022;DHT22;32779;52.264;6.154;2022-12-18T05:48:51;-5.10;99.90
47022;DHT22;32779;52.264;6.154;2022-12-18T05:51:20;-5.20;99.90
47022;DHT22;32779;52.264;6.154;2022-12-18T05:53:46;-5.20;99.90
47022;DHT22;32779;52.264;6.154;2022-12-18T05:56:18;-5.20;99.90
47022;DHT22;32779;52.264;6.154;2022-12-18T05:58:44;-5.20;99.90
47022;DHT22;32779;52.264;6.154;2022-12-18T06:01:14;-5.20;99.90
47022;DHT22;32779;52.264;6.154;2022-12-18T06:03:41;-5.20;99.90
47022;DHT22;32779;52.264;6.154;2022-12-18T06:06:19;-5.30;99.90
47022;DHT22;32779;52.264;6.154;2022-12-18T06:08:45;-5.30;99.90
47022;DHT22;32779;52.264;6.154;2022-12-18T06:11:10;-5.30;99.90
47022;DHT22;32779;52.264;6.154;2022-12-18T06:13:37;-5.30;99.90
47022;DHT22;32779;52.264;6.154;2022-12-18T06:16:04;-5.30;99.90
47022;DHT22;32779;52.264;6.154;2022-12-18T06:18:31;-5.30;99.90
47022;DHT22;32779;52.264;6.154;2022-12-18T06:20:57;-5.30;99.90
47022;DHT22;32779;52.264;6.154;2022-12-18T06:23:24;-5.30;99.90
47022;DHT22;32779;52.264;6.154;2022-12-18T06:25:50;-5.30;99.90
47022;DHT22;32779;52.264;6.154;2022-12-18T06:28:16;-5.30;99.90
47022;DHT22;32779;52.264;6.154;2022-12-18T06:30:46;-5.30;99.90
47022;DHT22;32779;52.264;6.154;2022-12-18T06:33:14;-5.30;99.90
47022;DHT22;32779;52.264;6.154;2022-12-18T06:35:43;-5.30;99.90
47022;DHT22;32779;52.264;6.154;2022-12-18T06:38:09;-5.30;99.90
47022;DHT22;32779;52.264;6.154;2022-12-18T06:40:37;-5.30;99.90
47022;DHT22;32779;52.264;6.154;2022-12-18T06:43:04;-5.20;99.90
47022;DHT22;32779;52.264;6.154;2022-12-18T06:45:30;-5.20;99.90
47022;DHT22;32779;52.264;6.154;2022-12-18T06:47:55;-5.20;99.90
47022;DHT22;32779;52.264;6.154;2022-12-18T06:50:21;-5.10;99.90
47022;DHT22;32779;52.264;6.154;2022-12-18T06:52:47;-5.10;99.90
47022;DHT22;32779;52.264;6.154;2022-12-18T06:55:12;-5.20;99.90
47022;DHT22;32779;52.264;6.154;2022-12-18T06:57:38;-5.20;99.90
47022;DHT22;32779;52.264;6.154;2022-12-18T07:00:06;-5.20;99.90
47022;DHT22;32779;52.264;6.154;2022-12-18T07:02:34;-5.20;99.90
47022;DHT22;32779;52.264;6.154;2022-12-18T07:05:01;-5.20;99.90
47022;DHT22;32779;52.264;6.154;2022-12-18T07:07:26;-5.20;99.90
47022;DHT22;32779;52.264;6.154;2022-12-18T07:09:52;-5.20;99.90
47022;DHT22;32779;52.264;6.154;2022-12-18T07:12:21;-5.30;99.90
47022;DHT22;32779;52.264;6.154;2022-12-18T07:14:47;-5.30;99.90
47022;DHT22;32779;52.264;6.154;2022-12-18T07:17:13;-5.40;99.90
47022;DHT22;32779;52.264;6.154;2022-12-18T07:19:48;-5.40;99.90
47022;DHT22;32779;52.264;6.154;2022-12-18T07:22:13;-5.40;99.90
47022;DHT22;32779;52.264;6.154;2022-12-18T07:24:39;-5.40;99.90
47022;DHT22;32779;52.264;6.154;2022-12-18T07:27:08;-5.50;99.90
47022;DHT22;32779;52.264;6.154;2022-12-18T07:29:37;-5.50;99.90
47022;DHT22;32779;52.264;6.154;2022-12-18T07:32:03;-5.50;99.90
47022;DHT22;32779;52.264;6.154;2022-12-18T07:34:29;-5.50;99.90
47022;DHT22;32779;52.264;6.154;2022-12-18T07:36:54;-5.50;99.90
47022;DHT22;32779;52.264;6.154;2022-12-18T07:39:20;-5.50;99.90
47022;DHT22;32779;52.264;6.154;2022-12-18T07:41:46;-5.60;99.90
47022;DHT22;32779;52.264;6.154;2022-12-18T07:44:32;-5.60;99.90
47022;DHT22;32779;52.264;6.154;2022-12-18T07:46:58;-5.60;99.90
47022;DHT22;32779;52.264;6.154;2022-12-18T07:49:23;-5.60;99.90
47022;DHT22;32779;52.264;6.154;2022-12-18T07:51:49;-5.60;99.90
47022;DHT22;32779;52.264;6.154;2022-12-18T07:54:15;-5.60;99.90
47022;DHT22;32779;52.264;6.154;2022-12-18T07:56:41;-5.60;99.90
47022;DHT22;32779;52.264;6.154;2022-12-18T07:59:07;-5.60;99.90
47022;DHT22;32779;52.264;6.154;2022-12-18T08:01:33;-5.50;99.90
47022;DHT22;32779;52.264;6.154;2022-12-18T08:04:00;-5.50;99.90
47022;DHT22;32779;52.264;6.154;2022-12-18T08:06:29;-5.50;99.90
47022;DHT22;32779;52.264;6.154;2022-12-18T08:08:55;-5.40;99.90
47022;DHT22;32779;52.264;6.154;2022-12-18T08:11:23;-5.40;99.90
47022;DHT22;32779;52.264;6.154;2022-12-18T08:13:53;-5.40;99.90
47022;DHT22;32779;52.264;6.154;2022-12-18T08:16:19;-5.40;99.90
47022;DHT22;32779;52.264;6.154;2022-12-18T08:18:45;-5.40;99.90
47022;DHT22;32779;52.264;6.154;2022-12-18T08:21:19;-5.40;99.90
47022;DHT22;32779;52.264;6.154;2022-12-18T08:23:46;-5.40;99.90
47022;DHT22;32779;52.264;6.154;2022-12-18T08:26:12;-5.30;99.90
47022;DHT22;32779;52.264;6.154;2022-12-18T08:28:38;-5.30;99.90
47022;DHT22;32779;52.264;6.154;2022-12-18T08:31:04;-5.30;99.90
47022;DHT22;32779;52.264;6.154;2022-12-18T08:33:30;-5.30;99.90
47022;DHT22;32779;52.264;6.154;2022-12-18T08:35:59;-5.30;99.90
47022;DHT22;32779;52.264;6.154;2022-12-18T08:38:28;-5.30;99.90
47022;DHT22;32779;52.264;6.154;2022-12-18T08:41:04;-5.30;99.90
47022;DHT22;32779;52.264;6.154;2022-12-18T08:43:30;-5.30;99.90
47022;DHT22;32779;52.264;6.154;2022-12-18T08:46:15;-5.30;99.90
47022;DHT22;32779;52.264;6.154;2022-12-18T08:48:40;-5.30;99.90
47022;DHT22;32779;52.264;6.154;2022-12-18T08:51:06;-5.20;99.90
47022;DHT22;32779;52.264;6.154;2022-12-18T08:53:32;-5.20;99.90
47022;DHT22;32779;52.264;6.154;2022-12-18T08:55:58;-5.10;99.90
47022;DHT22;32779;52.264;6.154;2022-12-18T08:58:23;-5.10;99.90
47022;DHT22;32779;52.264;6.154;2022-12-18T09:00:52;-5.10;99.90
47022;DHT22;32779;52.264;6.154;2022-12-18T09:03:18;-5.10;99.90
47022;DHT22;32779;52.264;6.154;2022-12-18T09:05:47;-5.00;99.90
47022;DHT22;32779;52.264;6.154;2022-12-18T09:08:16;-5.00;99.90
47022;DHT22;32779;52.264;6.154;2022-12-18T09:10:44;-4.90;99.90
47022;DHT22;32779;52.264;6.154;2022-12-18T09:13:14;-4.90;99.90
47022;DHT22;32779;52.264;6.154;2022-12-18T09:15:49;-4.80;99.90
47022;DHT22;32779;52.264;6.154;2022-12-18T09:18:16;-4.80;99.90
47022;DHT22;32779;52.264;6.154;2022-12-18T09:20:42;-4.70;99.90
47022;DHT22;32779;52.264;6.154;2022-12-18T09:23:09;-4.70;99.90
47022;DHT22;32779;52.264;6.154;2022-12-18T09:25:35;-4.60;99.90
47022;DHT22;32779;52.264;6.154;2022-12-18T09:28:02;-4.50;99.90
47022;DHT22;32779;52.264;6.154;2022-12-18T09:30:29;-4.50;99.90
47022;DHT22;32779;52.264;6.154;2022-12-18T09:32:55;-4.40;99.90
47022;DHT22;32779;52.264;6.154;2022-12-18T09:35:21;-4.30;99.90
47022;DHT22;32779;52.264;6.154;2022-12-18T09:37:47;-4.30;99.90
47022;DHT22;32779;52.264;6.154;2022-12-18T09:40:25;-4.30;99.90
47022;DHT22;32779;52.264;6.154;2022-12-18T09:43:00;-4.20;99.90
47022;DHT22;32779;52.264;6.154;2022-12-18T09:45:32;-4.10;99.90
47022;DHT22;32779;52.264;6.154;2022-12-18T09:48:04;-4.00;99.90
47022;DHT22;32779;52.264;6.154;2022-12-18T09:50:34;-3.90;99.90
47022;DHT22;32779;52.264;6.154;2022-12-18T09:53:05;-3.90;99.90
47022;DHT22;32779;52.264;6.154;2022-12-18T09:55:35;-3.80;99.90
47022;DHT22;32779;52.264;6.154;2022-12-18T09:58:53;-3.80;99.90
47022;DHT22;32779;52.264;6.154;2022-12-18T10:00:53;-3.70;99.90
47022;DHT22;32779;52.264;6.154;2022-12-18T10:03:20;-3.70;99.90
47022;DHT22;32779;52.264;6.154;2022-12-18T10:17:33;-3.40;99.90
47022;DHT22;32779;52.264;6.154;2022-12-18T10:19:40;-3.30;99.90
47022;DHT22;32779;52.264;6.154;2022-12-18T10:27:39;-3.10;99.90
47022;DHT22;32779;52.264;6.154;2022-12-18T10:30:16;-3.10;99.90
47022;DHT22;32779;52.264;6.154;2022-12-18T10:32:42;-3.00;99.90
47022;DHT22;32779;52.264;6.154;2022-12-18T10:35:20;-2.90;99.90
47022;DHT22;32779;52.264;6.154;2022-12-18T10:40:30;-2.70;99.90
47022;DHT22;32779;52.264;6.154;2022-12-18T10:43:13;-2.70;99.90
47022;DHT22;32779;52.264;6.154;2022-12-18T10:45:40;-2.60;99.90
47022;DHT22;32779;52.264;6.154;2022-12-18T10:48:22;-2.50;99.90
47022;DHT22;32779;52.264;6.154;2022-12-18T10:50:50;-2.50;99.90
47022;DHT22;32779;52.264;6.154;2022-12-18T10:53:28;-2.50;99.90
47022;DHT22;32779;52.264;6.154;2022-12-18T10:55:56;-2.40;99.90
47022;DHT22;32779;52.264;6.154;2022-12-18T10:58:40;-2.40;99.90
47022;DHT22;32779;52.264;6.154;2022-12-18T11:01:17;-2.40;99.90
47022;DHT22;32779;52.264;6.154;2022-12-18T11:04:02;-2.40;99.90
47022;DHT22;32779;52.264;6.154;2022-12-18T11:06:33;-2.30;99.90
47022;DHT22;32779;52.264;6.154;2022-12-18T11:09:19;-2.30;99.90
47022;DHT22;32779;52.264;6.154;2022-12-18T11:11:49;-2.30;99.90
47022;DHT22;32779;52.264;6.154;2022-12-18T11:16:57;-2.20;99.90
47022;DHT22;32779;52.264;6.154;2022-12-18T11:19:37;-2.20;99.90
47022;DHT22;32779;52.264;6.154;2022-12-18T11:22:26;-2.10;99.90
47022;DHT22;32779;52.264;6.154;2022-12-18T11:24:57;-2.10;99.90
47022;DHT22;32779;52.264;6.154;2022-12-18T11:27:27;-2.00;99.90
47022;DHT22;32779;52.264;6.154;2022-12-18T11:30:20;-2.00;99.90
47022;DHT22;32779;52.264;6.154;2022-12-18T11:33:33;-1.90;99.90
47022;DHT22;32779;52.264;6.154;2022-12-18T11:35:55;-1.90;99.90
47022;DHT22;32779;52.264;6.154;2022-12-18T11:38:26;-1.80;99.90
47022;DHT22;32779;52.264;6.154;2022-12-18T11:43:45;-1.80;99.90
47022;DHT22;32779;52.264;6.154;2022-12-18T11:46:27;-1.70;99.90
47022;DHT22;32779;52.264;6.154;2022-12-18T11:51:41;-1.70;99.90
47022;DHT22;32779;52.264;6.154;2022-12-18T11:54:13;-1.70;99.90
47022;DHT22;32779;52.264;6.154;2022-12-18T11:56:46;-1.60;99.90
47022;DHT22;32779;52.264;6.154;2022-12-18T11:59:40;-1.60;99.90
47022;DHT22;32779;52.264;6.154;2022-12-18T12:16:28;-1.50;99.90
47022;DHT22;32779;52.264;6.154;2022-12-18T12:21:39;-1.50;99.90
47022;DHT22;32779;52.264;6.154;2022-12-18T12:24:21;-1.50;99.90
47022;DHT22;32779;52.264;6.154;2022-12-18T12:29:59;-1.40;99.90
47022;DHT22;32779;52.264;6.154;2022-12-18T12:35:29;-1.30;99.90
47022;DHT22;32779;52.264;6.154;2022-12-18T12:38:20;-1.30;99.90
47022;DHT22;32779;52.264;6.154;2022-12-18T12:40:56;-1.30;99.90
47022;DHT22;32779;52.264;6.154;2022-12-18T12:46:10;-1.30;99.90
47022;DHT22;32779;52.264;6.154;2022-12-18T12:48:56;-1.30;99.90
47022;DHT22;32779;52.264;6.154;2022-12-18T12:51:29;-1.30;99.90
47022;DHT22;32779;52.264;6.154;2022-12-18T12:53:58;-1.20;99.90
47022;DHT22;32779;52.264;6.154;2022-12-18T12:56:32;-1.20;99.90
47022;DHT22;32779;52.264;6.154;2022-12-18T13:01:52;-1.20;99.90
47022;DHT22;32779;52.264;6.154;2022-12-18T13:09:23;-1.10;99.90
47022;DHT22;32779;52.264;6.154;2022-12-18T13:11:49;-1.10;99.90
47022;DHT22;32779;52.264;6.154;2022-12-18T13:14:39;-1.10;99.90
47022;DHT22;32779;52.264;6.154;2022-12-18T13:17:16;-1.10;99.90
47022;DHT22;32779;52.264;6.154;2022-12-18T13:19:42;-1.10;99.90
47022;DHT22;32779;52.264;6.154;2022-12-18T13:22:22;-1.10;99.90
47022;DHT22;32779;52.264;6.154;2022-12-18T13:24:49;-1.10;99.90
47022;DHT22;32779;52.264;6.154;2022-12-18T13:31:00;-1.00;99.90
47022;DHT22;32779;52.264;6.154;2022-12-18T13:36:15;-1.00;99.90
47022;DHT22;32779;52.264;6.154;2022-12-18T13:38:42;-0.90;99.90
47022;DHT22;32779;52.264;6.154;2022-12-18T13:43:46;-0.90;99.90
47022;DHT22;32779;52.264;6.154;2022-12-18T13:49:56;-0.90;99.90
47022;DHT22;32779;52.264;6.154;2022-12-18T13:52:33;-0.90;99.90
47022;DHT22;32779;52.264;6.154;2022-12-18T13:55:05;-0.90;99.90
47022;DHT22;32779;52.264;6.154;2022-12-18T13:57:35;-0.90;99.90
47022;DHT22;32779;52.264;6.154;2022-12-18T14:02:47;-0.90;99.90
47022;DHT22;32779;52.264;6.154;2022-12-18T14:05:29;-0.90;99.90
47022;DHT22;32779;52.264;6.154;2022-12-18T14:08:00;-0.80;99.90
47022;DHT22;32779;52.264;6.154;2022-12-18T14:10:28;-0.80;99.90
47022;DHT22;32779;52.264;6.154;2022-12-18T14:12:54;-0.80;99.90
47022;DHT22;32779;52.264;6.154;2022-12-18T14:17:50;-0.90;99.90
47022;DHT22;32779;52.264;6.154;2022-12-18T14:20:17;-0.90;99.90
47022;DHT22;32779;52.264;6.154;2022-12-18T14:22:47;-0.80;99.90
47022;DHT22;32779;52.264;6.154;2022-12-18T14:25:23;-0.80;99.90
47022;DHT22;32779;52.264;6.154;2022-12-18T14:28:13;-0.80;99.90
47022;DHT22;32779;52.264;6.154;2022-12-18T14:30:45;-0.80;99.90
47022;DHT22;32779;52.264;6.154;2022-12-18T14:33:15;-0.80;99.90
47022;DHT22;32779;52.264;6.154;2022-12-18T14:35:59;-0.80;99.90
47022;DHT22;32779;52.264;6.154;2022-12-18T14:38:34;-0.80;99.90
47022;DHT22;32779;52.264;6.154;2022-12-18T14:41:14;-0.70;99.90
47022;DHT22;32779;52.264;6.154;2022-12-18T14:43:42;-0.70;99.90
47022;DHT22;32779;52.264;6.154;2022-12-18T14:48:53;-0.70;99.90
47022;DHT22;32779;52.264;6.154;2022-12-18T14:51:25;-0.70;99.90
47022;DHT22;32779;52.264;6.154;2022-12-18T14:54:14;-0.70;99.90
47022;DHT22;32779;52.264;6.154;2022-12-18T14:56:51;-0.70;99.90
47022;DHT22;32779;52.264;6.154;2022-12-18T14:59:20;-0.70;99.90
47022;DHT22;32779;52.264;6.154;2022-12-18T15:04:41;-0.60;99.90
47022;DHT22;32779;52.264;6.154;2022-12-18T15:07:22;-0.60;99.90
47022;DHT22;32779;52.264;6.154;2022-12-18T15:12:35;-0.70;99.90
47022;DHT22;32779;52.264;6.154;2022-12-18T15:15:03;-0.70;99.90
47022;DHT22;32779;52.264;6.154;2022-12-18T15:17:29;-0.70;99.90
47022;DHT22;32779;52.264;6.154;2022-12-18T15:20:08;-0.70;99.90
47022;DHT22;32779;52.264;6.154;2022-12-18T15:22:36;-0.60;99.90
47022;DHT22;32779;52.264;6.154;2022-12-18T15:25:20;-0.60;99.90
47022;DHT22;32779;52.264;6.154;2022-12-18T15:27:52;-0.60;99.90
47022;DHT22;32779;52.264;6.154;2022-12-18T15:30:23;-0.60;99.90
47022;DHT22;32779;52.264;6.154;2022-12-18T15:32:50;-0.60;99.90
47022;DHT22;32779;52.264;6.154;2022-12-18T15:35:17;-0.60;99.90
47022;DHT22;32779;52.264;6.154;2022-12-18T15:37:44;-0.60;99.90
47022;DHT22;32779;52.264;6.154;2022-12-18T15:40:17;-0.60;99.90
47022;DHT22;32779;52.264;6.154;2022-12-18T15:42:43;-0.60;99.90
47022;DHT22;32779;52.264;6.154;2022-12-18T15:45:28;-0.50;99.90
47022;DHT22;32779;52.264;6.154;2022-12-18T15:47:57;-0.50;99.90
47022;DHT22;32779;52.264;6.154;2022-12-18T15:50:23;-0.40;99.90
47022;DHT22;32779;52.264;6.154;2022-12-18T15:52:51;-0.40;99.90
47022;DHT22;32779;52.264;6.154;2022-12-18T15:55:20;-0.40;99.90
47022;DHT22;32779;52.264;6.154;2022-12-18T15:58:07;-0.40;99.90
47022;DHT22;32779;52.264;6.154;2022-12-18T16:00:34;-0.40;99.90
47022;DHT22;32779;52.264;6.154;2022-12-18T16:03:00;-0.40;99.90
47022;DHT22;32779;52.264;6.154;2022-12-18T16:05:27;-0.40;99.90
47022;DHT22;32779;52.264;6.154;2022-12-18T16:07:52;-0.40;99.90
47022;DHT22;32779;52.264;6.154;2022-12-18T16:10:19;-0.40;99.90
47022;DHT22;32779;52.264;6.154;2022-12-18T16:12:45;-0.40;99.90
47022;DHT22;32779;52.264;6.154;2022-12-18T16:15:13;-0.40;99.90
47022;DHT22;32779;52.264;6.154;2022-12-18T16:17:40;-0.40;99.90
47022;DHT22;32779;52.264;6.154;2022-12-18T16:20:15;-0.40;99.90
47022;DHT22;32779;52.264;6.154;2022-12-18T16:22:42;-0.40;99.90
47022;DHT22;32779;52.264;6.154;2022-12-18T16:25:20;-0.40;99.90
47022;DHT22;32779;52.264;6.154;2022-12-18T16:27:46;-0.40;99.90
47022;DHT22;32779;52.264;6.154;2022-12-18T16:30:13;-0.40;99.90
47022;DHT22;32779;52.264;6.154;2022-12-18T16:32:39;-0.40;99.90
47022;DHT22;32779;52.264;6.154;2022-12-18T16:35:05;-0.40;99.90
47022;DHT22;32779;52.264;6.154;2022-12-18T16:37:32;-0.40;99.90
47022;DHT22;32779;52.264;6.154;2022-12-18T16:39:57;-0.40;99.90
47022;DHT22;32779;52.264;6.154;2022-12-18T16:42:26;-0.40;99.90
47022;DHT22;32779;52.264;6.154;2022-12-18T16:44:52;-0.40;99.90
47022;DHT22;32779;52.264;6.154;2022-12-18T16:47:18;-0.40;99.90
47022;DHT22;32779;52.264;6.154;2022-12-18T16:49:44;-0.40;99.90
47022;DHT22;32779;52.264;6.154;2022-12-18T16:52:11;-0.40;99.90
47022;DHT22;32779;52.264;6.154;2022-12-18T16:54:37;-0.40;99.90
47022;DHT22;32779;52.264;6.154;2022-12-18T16:57:03;-0.40;99.90
47022;DHT22;32779;52.264;6.154;2022-12-18T16:59:30;-0.40;99.90
47022;DHT22;32779;52.264;6.154;2022-12-18T17:01:56;-0.40;99.90
47022;DHT22;32779;52.264;6.154;2022-12-18T17:04:22;-0.40;99.90
47022;DHT22;32779;52.264;6.154;2022-12-18T17:06:50;-0.40;99.90
47022;DHT22;32779;52.264;6.154;2022-12-18T17:09:19;-0.40;99.90
47022;DHT22;32779;52.264;6.154;2022-12-18T17:11:48;-0.40;99.90
47022;DHT22;32779;52.264;6.154;2022-12-18T17:14:16;-0.40;99.90
47022;DHT22;32779;52.264;6.154;2022-12-18T17:16:42;-0.40;99.90
47022;DHT22;32779;52.264;6.154;2022-12-18T17:19:09;-0.40;99.90
47022;DHT22;32779;52.264;6.154;2022-12-18T17:21:35;-0.40;99.90
47022;DHT22;32779;52.264;6.154;2022-12-18T17:24:01;-0.40;99.90
47022;DHT22;32779;52.264;6.154;2022-12-18T17:26:27;-0.40;99.90
47022;DHT22;32779;52.264;6.154;2022-12-18T17:28:59;-0.30;99.90
47022;DHT22;32779;52.264;6.154;2022-12-18T17:31:27;-0.40;99.90
47022;DHT22;32779;52.264;6.154;2022-12-18T17:33:56;-0.40;99.90
47022;DHT22;32779;52.264;6.154;2022-12-18T17:36:23;-0.40;99.90
47022;DHT22;32779;52.264;6.154;2022-12-18T17:38:50;-0.30;99.90
47022;DHT22;32779;52.264;6.154;2022-12-18T17:41:16;-0.30;99.90
47022;DHT22;32779;52.264;6.154;2022-12-18T17:43:42;-0.40;99.90
47022;DHT22;32779;52.264;6.154;2022-12-18T17:46:13;-0.40;99.90
47022;DHT22;32779;52.264;6.154;2022-12-18T17:48:42;-0.40;99.90